createdAt,value
2023-04-25T00:00:16.214Z,100.00
2023-04-25T00:05:19.199Z,100.00
2023-04-25T00:10:22.198Z,100.00
2023-04-25T00:15:26.316Z,100.00
2023-04-25T00:20:28.896Z,100.00
2023-04-25T00:25:31.462Z,100.00
2023-04-25T00:30:35.470Z,100.00
2023-04-25T00:35:38.365Z,100.00
2023-04-25T00:40:40.908Z,100.00
2023-04-25T00:45:45.600Z,100.00
2023-04-25T00:50:54.236Z,100.00
2023-04-25T00:55:57.264Z,100.00
2023-04-25T01:01:01.890Z,100.00
2023-04-25T01:06:04.740Z,100.00
2023-04-25T01:11:07.667Z,100.00
2023-04-25T01:16:11.712Z,100.00
2023-04-25T01:21:15.927Z,100.00
2023-04-25T01:26:19.157Z,100.00
2023-04-25T01:31:22.002Z,100.00
2023-04-25T01:36:26.159Z,100.00
2023-04-25T01:41:29.277Z,100.00
2023-04-25T01:46:32.732Z,100.00
2023-04-25T01:51:36.966Z,100.00
2023-04-25T01:56:40.178Z,100.00
2023-04-25T02:01:42.873Z,100.00
2023-04-25T02:06:46.895Z,100.00
2023-04-25T02:11:49.700Z,100.00
2023-04-25T02:16:53.003Z,100.00
2023-04-25T02:21:58.064Z,100.00
2023-04-25T02:27:00.718Z,100.00
2023-04-25T02:32:03.603Z,100.00
2023-04-25T02:37:07.509Z,100.00
2023-04-25T02:42:10.075Z,100.00
2023-04-25T02:47:12.661Z,100.00
2023-04-25T02:52:16.652Z,100.00
2023-04-25T02:57:19.197Z,100.00
2023-04-25T03:02:21.859Z,100.00
2023-04-25T03:07:27.893Z,100.00
2023-04-25T03:12:30.630Z,100.00
2023-04-25T03:17:33.373Z,100.00
2023-04-25T03:22:38.384Z,100.00
2023-04-25T03:27:40.947Z,100.00
2023-04-25T03:32:43.538Z,100.00
2023-04-25T03:37:47.507Z,100.00
2023-04-25T03:42:50.073Z,100.00
2023-04-25T03:47:52.620Z,100.00
2023-04-25T03:52:56.573Z,100.00
2023-04-25T03:57:59.874Z,100.00
2023-04-25T04:03:02.615Z,100.00
2023-04-25T04:08:06.902Z,100.00
2023-04-25T04:13:09.486Z,100.00
2023-04-25T04:18:12.142Z,100.00
2023-04-25T04:23:16.173Z,100.00
2023-04-25T04:28:18.799Z,100.00
2023-04-25T04:33:21.528Z,100.00
2023-04-25T04:38:26.396Z,100.00
2023-04-25T04:43:29.540Z,100.00
2023-04-25T04:48:35.197Z,100.00
2023-04-25T04:53:39.155Z,100.00
2023-04-25T04:58:41.724Z,100.00
2023-04-25T05:03:44.443Z,100.00
2023-04-25T05:08:48.470Z,100.00
2023-04-25T05:13:53.426Z,100.00
2023-04-25T05:18:56.359Z,100.00
2023-04-25T05:24:00.691Z,100.00
2023-04-25T05:29:03.316Z,100.00
2023-04-25T05:34:05.916Z,100.00
2023-04-25T05:39:09.948Z,100.00
2023-04-25T05:44:12.581Z,100.00
2023-04-25T05:49:16.406Z,100.00
2023-04-25T05:54:21.443Z,100.00
2023-04-25T05:59:24.011Z,100.00
2023-04-25T06:04:27.530Z,100.00
2023-04-25T06:09:31.594Z,100.00
2023-04-25T06:14:34.209Z,100.00
2023-04-25T06:19:37.696Z,100.00
2023-04-25T06:24:41.490Z,100.00
2023-04-25T06:29:44.054Z,100.00
2023-04-25T06:34:46.642Z,100.00
2023-04-25T06:39:50.688Z,100.00
2023-04-25T06:44:53.257Z,100.00
2023-04-25T06:49:55.839Z,100.00
2023-04-25T06:55:00.388Z,100.00
2023-04-25T07:00:06.280Z,100.00
2023-04-25T07:05:09.449Z,100.00
2023-04-25T07:10:13.332Z,100.00
2023-04-25T07:15:16.020Z,89.74
2023-04-25T07:20:18.615Z,100.00
2023-04-25T07:25:22.549Z,100.00
2023-04-25T07:30:25.403Z,100.00
2023-04-25T07:35:28.146Z,100.00
2023-04-25T07:40:32.258Z,100.00
2023-04-25T07:45:34.869Z,100.00
2023-04-25T07:50:37.522Z,100.00
2023-04-25T07:55:41.783Z,100.00
2023-04-25T08:00:44.369Z,100.00
2023-04-25T08:05:47.795Z,100.00
2023-04-25T08:10:51.871Z,100.00
2023-04-25T08:15:54.467Z,100.00
2023-04-25T08:20:57.167Z,100.00
2023-04-25T08:26:01.159Z,100.00
2023-04-25T08:31:03.988Z,100.00
2023-04-25T08:36:06.897Z,100.00
2023-04-25T08:41:13.830Z,100.00
2023-04-25T08:46:20.264Z,100.00
2023-04-25T08:51:25.538Z,100.00
2023-04-25T08:56:31.131Z,100.00
2023-04-25T09:01:34.017Z,100.00
2023-04-25T09:06:37.217Z,100.00
2023-04-25T09:11:41.658Z,100.00
2023-04-25T09:17:09.157Z,100.00
2023-04-25T09:22:11.802Z,100.00
2023-04-25T09:27:21.388Z,86.00
2023-04-25T09:32:25.671Z,64.33
2023-04-25T09:37:30.523Z,56.53
2023-04-25T09:42:35.732Z,55.75
2023-04-25T09:47:39.795Z,65.97
2023-04-25T09:52:42.660Z,87.13
2023-04-25T09:57:52.381Z,100.00
2023-04-25T10:02:56.531Z,100.00
2023-04-25T10:08:00.183Z,100.00
2023-04-25T10:13:04.217Z,100.00
2023-04-25T10:18:08.428Z,100.00
2023-04-25T10:23:17.973Z,100.00
2023-04-25T10:28:22.337Z,100.00
2023-04-25T10:33:34.231Z,100.00
2023-04-25T10:38:37.882Z,100.00
2023-04-25T10:43:43.118Z,100.00
2023-04-25T10:48:49.206Z,100.00
2023-04-25T10:54:02.704Z,100.00
2023-04-25T10:59:09.502Z,98.15
2023-04-25T11:04:23.444Z,80.33
2023-04-25T11:09:27.432Z,80.82
2023-04-25T11:14:31.367Z,75.33
2023-04-25T11:19:33.982Z,62.17
2023-04-25T11:24:37.941Z,66.32
2023-04-25T11:29:43.041Z,73.72
2023-04-25T11:34:47.107Z,69.46
2023-04-25T11:39:49.864Z,57.89
2023-04-25T11:44:56.626Z,51.41
2023-04-25T11:50:00.624Z,53.22
2023-04-25T11:55:03.307Z,49.73
2023-04-25T12:00:15.848Z,45.39
2023-04-25T12:05:32.068Z,49.01
2023-04-25T12:10:39.437Z,100.00
2023-04-25T12:15:43.735Z,100.00
2023-04-25T12:20:46.496Z,100.00
2023-04-25T12:25:49.022Z,100.00
2023-04-25T12:31:01.653Z,100.00
2023-04-25T12:36:09.742Z,100.00
2023-04-25T12:41:12.494Z,100.00
2023-04-25T12:46:16.502Z,98.72
2023-04-25T12:51:19.179Z,87.51
2023-04-25T12:56:23.617Z,71.09
2023-04-25T13:01:29.459Z,61.66
2023-04-25T13:06:32.380Z,57.11
2023-04-25T13:11:34.979Z,51.45
2023-04-25T13:16:39.088Z,54.40
2023-04-25T13:21:42.739Z,53.70
2023-04-25T13:26:45.812Z,53.29
2023-04-25T13:31:49.788Z,57.92
2023-04-25T13:36:52.396Z,57.40
2023-04-25T13:41:55.041Z,61.50
2023-04-25T13:46:59.099Z,70.84
2023-04-25T13:52:02.737Z,73.53
2023-04-25T13:57:06.255Z,57.96
2023-04-25T14:02:10.246Z,52.27
2023-04-25T14:07:12.945Z,53.79
2023-04-25T14:12:15.657Z,52.57
2023-04-25T14:17:19.873Z,46.81
2023-04-25T14:22:22.435Z,49.30
2023-04-25T14:27:26.185Z,48.45
2023-04-25T14:32:33.088Z,48.96
2023-04-25T14:37:35.738Z,51.87
2023-04-25T14:42:38.558Z,52.73
2023-04-25T14:47:42.865Z,54.85
2023-04-25T14:52:46.904Z,55.66
2023-04-25T14:57:49.463Z,62.01
2023-04-25T15:02:53.721Z,62.60
2023-04-25T15:07:56.692Z,62.03
2023-04-25T15:12:59.374Z,61.66
2023-04-25T15:18:03.372Z,56.30
2023-04-25T15:23:06.586Z,58.61
2023-04-25T15:28:09.557Z,55.37
2023-04-25T15:33:14.345Z,55.35
2023-04-25T15:38:16.973Z,54.34
2023-04-25T15:43:19.515Z,60.09
2023-04-25T15:48:23.506Z,66.16
2023-04-25T15:53:26.153Z,58.93
2023-04-25T15:58:28.760Z,51.00
2023-04-25T16:03:36.361Z,53.13
2023-04-25T16:08:39.347Z,54.11
2023-04-25T16:13:41.958Z,67.50
2023-04-25T16:18:45.846Z,72.40
2023-04-25T16:23:48.563Z,86.37
2023-04-25T16:28:51.225Z,85.85
2023-04-25T16:33:55.168Z,74.92
2023-04-25T16:38:57.735Z,67.85
2023-04-25T16:44:00.317Z,66.16
2023-04-25T16:49:04.352Z,66.78
2023-04-25T16:54:06.957Z,64.18
2023-04-25T16:59:09.574Z,67.65
2023-04-25T17:04:13.574Z,76.43
2023-04-25T17:09:16.271Z,98.17
2023-04-25T17:14:18.871Z,100.00
2023-04-25T17:19:22.846Z,100.00
2023-04-25T17:24:25.500Z,100.00
2023-04-25T17:29:28.136Z,100.00
2023-04-25T17:34:32.063Z,100.00
2023-04-25T17:39:34.666Z,100.00
2023-04-25T17:44:37.306Z,100.00
2023-04-25T17:49:41.396Z,100.00
2023-04-25T17:54:43.989Z,100.00
2023-04-25T17:59:46.610Z,100.00
2023-04-25T18:04:50.642Z,100.00
2023-04-25T18:09:53.307Z,100.00
2023-04-25T18:14:55.935Z,100.00
2023-04-25T18:20:01.744Z,100.00
2023-04-25T18:25:05.718Z,100.00
2023-04-25T18:30:10.623Z,100.00
2023-04-25T18:35:14.612Z,100.00
2023-04-25T18:40:17.304Z,100.00
2023-04-25T18:45:20.094Z,100.00
2023-04-25T18:50:26.326Z,100.00
2023-04-25T18:55:29.901Z,100.00
2023-04-25T19:00:32.606Z,100.00
2023-04-25T19:05:36.569Z,100.00
2023-04-25T19:10:39.129Z,100.00
2023-04-25T19:15:42.678Z,100.00
2023-04-25T19:20:46.613Z,100.00
2023-04-25T19:25:49.245Z,100.00
2023-04-25T19:30:52.298Z,100.00
2023-04-25T19:35:56.225Z,100.00
2023-04-25T19:40:58.860Z,100.00
2023-04-25T19:46:01.405Z,100.00
2023-04-25T19:51:05.884Z,100.00
2023-04-25T19:56:09.700Z,100.00
2023-04-25T20:01:12.340Z,100.00
2023-04-25T20:06:16.339Z,100.00
2023-04-25T20:11:18.997Z,100.00
2023-04-25T20:16:21.997Z,100.00
2023-04-25T20:21:27.404Z,100.00
2023-04-25T20:26:33.784Z,100.00
2023-04-25T20:31:37.127Z,100.00
2023-04-25T20:36:41.078Z,100.00
2023-04-25T20:41:44.757Z,100.00
2023-04-25T20:46:48.012Z,100.00
2023-04-25T20:51:52.451Z,100.00
2023-04-25T20:56:55.839Z,100.00
2023-04-25T21:01:59.549Z,100.00
2023-04-25T21:07:03.586Z,100.00
2023-04-25T21:12:06.940Z,100.00
2023-04-25T21:17:09.602Z,100.00
2023-04-25T21:22:13.659Z,100.00
2023-04-25T21:27:18.966Z,100.00
2023-04-25T21:32:22.212Z,100.00
2023-04-25T21:37:26.169Z,100.00
2023-04-25T21:42:28.818Z,100.00
2023-04-25T21:47:31.739Z,100.00
2023-04-25T21:52:36.897Z,100.00
2023-04-25T21:57:39.505Z,100.00
2023-04-25T22:02:42.211Z,100.00
2023-04-25T22:07:46.210Z,100.00
2023-04-25T22:12:50.790Z,100.00
2023-04-25T22:17:55.260Z,100.00
2023-04-25T22:22:59.578Z,100.00
2023-04-25T22:28:02.110Z,100.00
2023-04-25T22:33:04.833Z,100.00
2023-04-25T22:38:08.778Z,100.00
2023-04-25T22:43:12.262Z,100.00
2023-04-25T22:48:15.898Z,100.00
2023-04-25T22:53:19.668Z,100.00
2023-04-25T22:58:22.264Z,100.00
2023-04-25T23:03:25.005Z,100.00
2023-04-25T23:08:29.103Z,100.00
2023-04-25T23:13:34.058Z,100.00
2023-04-25T23:18:37.302Z,100.00
2023-04-25T23:23:41.214Z,100.00
2023-04-25T23:28:45.113Z,100.00
2023-04-25T23:33:47.667Z,100.00
2023-04-25T23:38:52.471Z,100.00
2023-04-25T23:43:56.162Z,100.00
2023-04-25T23:48:59.009Z,100.00
2023-04-25T23:54:05.217Z,100.00
2023-04-25T23:59:08.950Z,100.00
